sensor_id;sensor_type;location;lat;lon;timestamp;P1;durP1;ratioP1;P2;durP2;ratioP2
6133;SDS011;3098;42.678;23.364;2022-08-19T00:02:00;12.32;;;7.70;;
6133;SDS011;3098;42.678;23.364;2022-08-19T00:04:30;13.98;;;8.07;;
6133;SDS011;3098;42.678;23.364;2022-08-19T00:07:01;11.73;;;8.50;;
6133;SDS011;3098;42.678;23.364;2022-08-19T00:09:30;13.13;;;8.13;;
6133;SDS011;3098;42.678;23.364;2022-08-19T00:11:59;14.20;;;8.00;;
6133;SDS011;3098;42.678;23.364;2022-08-19T00:14:27;13.45;;;7.63;;
6133;SDS011;3098;42.678;23.364;2022-08-19T00:16:56;13.07;;;8.80;;
6133;SDS011;3098;42.678;23.364;2022-08-19T00:19:25;15.23;;;7.97;;
6133;SDS011;3098;42.678;23.364;2022-08-19T00:21:53;15.75;;;8.55;;
6133;SDS011;3098;42.678;23.364;2022-08-19T00:24:21;14.23;;;8.73;;
6133;SDS011;3098;42.678;23.364;2022-08-19T00:26:49;18.73;;;8.48;;
6133;SDS011;3098;42.678;23.364;2022-08-19T00:29:19;14.23;;;8.20;;
6133;SDS011;3098;42.678;23.364;2022-08-19T00:31:47;16.67;;;8.52;;
6133;SDS011;3098;42.678;23.364;2022-08-19T00:34:15;15.50;;;8.25;;
6133;SDS011;3098;42.678;23.364;2022-08-19T00:36:42;16.60;;;8.90;;
6133;SDS011;3098;42.678;23.364;2022-08-19T00:39:10;14.55;;;8.52;;
6133;SDS011;3098;42.678;23.364;2022-08-19T00:41:38;18.63;;;9.93;;
6133;SDS011;3098;42.678;23.364;2022-08-19T00:44:06;21.80;;;8.95;;
6133;SDS011;3098;42.678;23.364;2022-08-19T00:46:38;14.70;;;9.18;;
6133;SDS011;3098;42.678;23.364;2022-08-19T00:49:09;17.70;;;9.20;;
6133;SDS011;3098;42.678;23.364;2022-08-19T00:51:40;14.77;;;9.32;;
6133;SDS011;3098;42.678;23.364;2022-08-19T00:54:09;21.02;;;10.60;;
6133;SDS011;3098;42.678;23.364;2022-08-19T00:56:36;16.50;;;10.15;;
6133;SDS011;3098;42.678;23.364;2022-08-19T00:59:05;22.13;;;9.63;;
6133;SDS011;3098;42.678;23.364;2022-08-19T01:01:34;17.73;;;8.95;;
6133;SDS011;3098;42.678;23.364;2022-08-19T01:04:03;20.02;;;8.68;;
6133;SDS011;3098;42.678;23.364;2022-08-19T01:06:31;12.75;;;9.05;;
6133;SDS011;3098;42.678;23.364;2022-08-19T01:08:59;16.98;;;9.50;;
6133;SDS011;3098;42.678;23.364;2022-08-19T01:11:26;16.88;;;9.18;;
6133;SDS011;3098;42.678;23.364;2022-08-19T01:13:54;15.43;;;10.02;;
6133;SDS011;3098;42.678;23.364;2022-08-19T01:16:22;13.93;;;9.65;;
6133;SDS011;3098;42.678;23.364;2022-08-19T01:18:51;21.95;;;11.85;;
6133;SDS011;3098;42.678;23.364;2022-08-19T01:21:22;15.48;;;9.10;;
6133;SDS011;3098;42.678;23.364;2022-08-19T01:23:55;13.25;;;9.45;;
6133;SDS011;3098;42.678;23.364;2022-08-19T01:26:23;15.90;;;10.05;;
6133;SDS011;3098;42.678;23.364;2022-08-19T01:28:53;12.75;;;9.82;;
6133;SDS011;3098;42.678;23.364;2022-08-19T01:31:23;15.90;;;8.98;;
6133;SDS011;3098;42.678;23.364;2022-08-19T01:33:53;15.52;;;10.88;;
6133;SDS011;3098;42.678;23.364;2022-08-19T01:36:23;14.30;;;8.75;;
6133;SDS011;3098;42.678;23.364;2022-08-19T01:38:52;14.77;;;10.05;;
6133;SDS011;3098;42.678;23.364;2022-08-19T01:41:21;14.88;;;9.60;;
6133;SDS011;3098;42.678;23.364;2022-08-19T01:43:49;13.73;;;8.25;;
6133;SDS011;3098;42.678;23.364;2022-08-19T01:46:16;17.23;;;10.88;;
6133;SDS011;3098;42.678;23.364;2022-08-19T01:48:45;14.43;;;9.27;;
6133;SDS011;3098;42.678;23.364;2022-08-19T01:51:12;14.30;;;9.70;;
6133;SDS011;3098;42.678;23.364;2022-08-19T01:53:39;14.52;;;10.18;;
6133;SDS011;3098;42.678;23.364;2022-08-19T01:56:09;18.90;;;10.90;;
6133;SDS011;3098;42.678;23.364;2022-08-19T01:58:38;17.25;;;10.10;;
6133;SDS011;3098;42.678;23.364;2022-08-19T02:01:12;18.65;;;11.63;;
6133;SDS011;3098;42.678;23.364;2022-08-19T02:03:40;19.27;;;9.95;;
6133;SDS011;3098;42.678;23.364;2022-08-19T02:06:07;13.82;;;9.57;;
6133;SDS011;3098;42.678;23.364;2022-08-19T02:08:35;14.85;;;10.00;;
6133;SDS011;3098;42.678;23.364;2022-08-19T02:11:04;13.77;;;9.18;;
6133;SDS011;3098;42.678;23.364;2022-08-19T02:13:34;21.80;;;10.60;;
6133;SDS011;3098;42.678;23.364;2022-08-19T02:16:02;15.55;;;9.88;;
6133;SDS011;3098;42.678;23.364;2022-08-19T02:18:29;17.63;;;9.32;;
6133;SDS011;3098;42.678;23.364;2022-08-19T02:20:58;15.50;;;8.80;;
6133;SDS011;3098;42.678;23.364;2022-08-19T02:23:24;12.23;;;9.20;;
6133;SDS011;3098;42.678;23.364;2022-08-19T02:25:52;14.13;;;9.10;;
6133;SDS011;3098;42.678;23.364;2022-08-19T02:28:19;11.93;;;9.07;;
6133;SDS011;3098;42.678;23.364;2022-08-19T02:30:47;15.55;;;9.73;;
6133;SDS011;3098;42.678;23.364;2022-08-19T02:33:15;16.60;;;9.25;;
6133;SDS011;3098;42.678;23.364;2022-08-19T02:35:42;16.80;;;9.02;;
6133;SDS011;3098;42.678;23.364;2022-08-19T02:38:10;15.15;;;9.27;;
6133;SDS011;3098;42.678;23.364;2022-08-19T02:40:52;12.43;;;9.00;;
6133;SDS011;3098;42.678;23.364;2022-08-19T02:43:22;12.25;;;8.57;;
6133;SDS011;3098;42.678;23.364;2022-08-19T02:45:53;19.05;;;10.27;;
6133;SDS011;3098;42.678;23.364;2022-08-19T02:48:22;14.82;;;9.05;;
6133;SDS011;3098;42.678;23.364;2022-08-19T02:50:51;14.52;;;8.82;;
6133;SDS011;3098;42.678;23.364;2022-08-19T02:53:20;17.88;;;9.85;;
6133;SDS011;3098;42.678;23.364;2022-08-19T02:55:48;17.88;;;8.95;;
6133;SDS011;3098;42.678;23.364;2022-08-19T02:58:16;14.57;;;9.02;;
6133;SDS011;3098;42.678;23.364;2022-08-19T03:00:45;15.23;;;9.95;;
6133;SDS011;3098;42.678;23.364;2022-08-19T03:03:15;12.63;;;9.10;;
6133;SDS011;3098;42.678;23.364;2022-08-19T03:05:43;15.93;;;9.48;;
6133;SDS011;3098;42.678;23.364;2022-08-19T03:08:12;20.98;;;9.65;;
6133;SDS011;3098;42.678;23.364;2022-08-19T03:10:41;11.98;;;9.18;;
6133;SDS011;3098;42.678;23.364;2022-08-19T03:13:11;12.95;;;9.05;;
6133;SDS011;3098;42.678;23.364;2022-08-19T03:15:40;18.38;;;10.32;;
6133;SDS011;3098;42.678;23.364;2022-08-19T03:18:08;13.15;;;9.30;;
6133;SDS011;3098;42.678;23.364;2022-08-19T03:20:41;15.88;;;10.18;;
6133;SDS011;3098;42.678;23.364;2022-08-19T03:23:09;16.40;;;10.50;;
6133;SDS011;3098;42.678;23.364;2022-08-19T03:25:38;15.65;;;10.32;;
6133;SDS011;3098;42.678;23.364;2022-08-19T03:28:08;16.35;;;10.45;;
6133;SDS011;3098;42.678;23.364;2022-08-19T03:30:37;19.58;;;12.40;;
6133;SDS011;3098;42.678;23.364;2022-08-19T03:33:04;19.45;;;12.23;;
6133;SDS011;3098;42.678;23.364;2022-08-19T03:35:32;22.63;;;13.77;;
6133;SDS011;3098;42.678;23.364;2022-08-19T03:38:03;23.70;;;14.40;;
6133;SDS011;3098;42.678;23.364;2022-08-19T03:40:31;13.82;;;9.25;;
6133;SDS011;3098;42.678;23.364;2022-08-19T03:43:00;18.02;;;11.05;;
6133;SDS011;3098;42.678;23.364;2022-08-19T03:45:27;16.27;;;10.30;;
6133;SDS011;3098;42.678;23.364;2022-08-19T03:47:55;16.80;;;10.48;;
6133;SDS011;3098;42.678;23.364;2022-08-19T03:50:23;13.75;;;9.48;;
6133;SDS011;3098;42.678;23.364;2022-08-19T03:52:51;23.48;;;10.05;;
6133;SDS011;3098;42.678;23.364;2022-08-19T03:55:21;17.40;;;9.95;;
6133;SDS011;3098;42.678;23.364;2022-08-19T03:57:48;14.35;;;10.15;;
6133;SDS011;3098;42.678;23.364;2022-08-19T04:00:15;14.48;;;9.73;;
6133;SDS011;3098;42.678;23.364;2022-08-19T04:02:43;16.40;;;9.82;;
6133;SDS011;3098;42.678;23.364;2022-08-19T04:05:10;13.57;;;9.65;;
6133;SDS011;3098;42.678;23.364;2022-08-19T04:07:39;14.45;;;9.48;;
6133;SDS011;3098;42.678;23.364;2022-08-19T04:10:06;16.60;;;10.25;;
6133;SDS011;3098;42.678;23.364;2022-08-19T04:12:34;23.95;;;13.27;;
6133;SDS011;3098;42.678;23.364;2022-08-19T04:15:02;19.95;;;12.43;;
6133;SDS011;3098;42.678;23.364;2022-08-19T04:17:29;34.80;;;20.60;;
6133;SDS011;3098;42.678;23.364;2022-08-19T04:19:57;23.55;;;12.20;;
6133;SDS011;3098;42.678;23.364;2022-08-19T04:22:24;19.88;;;10.60;;
6133;SDS011;3098;42.678;23.364;2022-08-19T04:24:51;27.35;;;12.40;;
6133;SDS011;3098;42.678;23.364;2022-08-19T04:27:19;23.23;;;11.07;;
6133;SDS011;3098;42.678;23.364;2022-08-19T04:29:48;20.10;;;10.52;;
6133;SDS011;3098;42.678;23.364;2022-08-19T04:32:15;17.90;;;10.40;;
6133;SDS011;3098;42.678;23.364;2022-08-19T04:34:42;19.42;;;10.65;;
6133;SDS011;3098;42.678;23.364;2022-08-19T04:37:09;17.10;;;11.82;;
6133;SDS011;3098;42.678;23.364;2022-08-19T04:39:38;17.77;;;11.15;;
6133;SDS011;3098;42.678;23.364;2022-08-19T04:42:23;17.20;;;11.13;;
6133;SDS011;3098;42.678;23.364;2022-08-19T04:45:07;23.67;;;12.93;;
6133;SDS011;3098;42.678;23.364;2022-08-19T04:47:38;34.63;;;17.92;;
6133;SDS011;3098;42.678;23.364;2022-08-19T04:50:12;26.20;;;12.55;;
6133;SDS011;3098;42.678;23.364;2022-08-19T04:52:40;22.40;;;11.98;;
6133;SDS011;3098;42.678;23.364;2022-08-19T04:55:08;21.08;;;11.57;;
6133;SDS011;3098;42.678;23.364;2022-08-19T04:57:36;22.52;;;11.35;;
6133;SDS011;3098;42.678;23.364;2022-08-19T05:00:07;22.50;;;11.68;;
6133;SDS011;3098;42.678;23.364;2022-08-19T05:02:35;28.38;;;11.77;;
6133;SDS011;3098;42.678;23.364;2022-08-19T05:05:03;21.70;;;12.65;;
6133;SDS011;3098;42.678;23.364;2022-08-19T05:07:31;30.73;;;14.98;;
6133;SDS011;3098;42.678;23.364;2022-08-19T05:09:58;18.98;;;9.35;;
6133;SDS011;3098;42.678;23.364;2022-08-19T05:12:25;21.23;;;11.52;;
6133;SDS011;3098;42.678;23.364;2022-08-19T05:14:53;24.75;;;14.77;;
6133;SDS011;3098;42.678;23.364;2022-08-19T05:17:24;19.75;;;10.23;;
6133;SDS011;3098;42.678;23.364;2022-08-19T05:19:52;17.17;;;9.73;;
6133;SDS011;3098;42.678;23.364;2022-08-19T05:22:36;36.97;;;13.15;;
6133;SDS011;3098;42.678;23.364;2022-08-19T05:25:05;15.05;;;9.10;;
6133;SDS011;3098;42.678;23.364;2022-08-19T05:27:34;15.30;;;8.90;;
6133;SDS011;3098;42.678;23.364;2022-08-19T05:30:02;17.35;;;9.15;;
6133;SDS011;3098;42.678;23.364;2022-08-19T05:32:31;16.90;;;10.40;;
6133;SDS011;3098;42.678;23.364;2022-08-19T05:34:59;15.40;;;8.77;;
6133;SDS011;3098;42.678;23.364;2022-08-19T05:37:27;14.43;;;8.73;;
6133;SDS011;3098;42.678;23.364;2022-08-19T05:39:54;14.90;;;8.35;;
6133;SDS011;3098;42.678;23.364;2022-08-19T05:42:23;16.25;;;9.18;;
6133;SDS011;3098;42.678;23.364;2022-08-19T05:44:51;15.13;;;9.27;;
6133;SDS011;3098;42.678;23.364;2022-08-19T05:47:19;16.75;;;8.43;;
6133;SDS011;3098;42.678;23.364;2022-08-19T05:49:48;11.35;;;8.32;;
6133;SDS011;3098;42.678;23.364;2022-08-19T05:52:16;13.20;;;9.40;;
6133;SDS011;3098;42.678;23.364;2022-08-19T05:54:43;19.92;;;11.60;;
6133;SDS011;3098;42.678;23.364;2022-08-19T05:57:13;33.45;;;22.55;;
6133;SDS011;3098;42.678;23.364;2022-08-19T05:59:41;20.95;;;8.15;;
6133;SDS011;3098;42.678;23.364;2022-08-19T06:02:09;17.58;;;8.65;;
6133;SDS011;3098;42.678;23.364;2022-08-19T06:04:35;14.10;;;9.82;;
6133;SDS011;3098;42.678;23.364;2022-08-19T06:07:05;12.57;;;9.73;;
6133;SDS011;3098;42.678;23.364;2022-08-19T06:09:32;15.55;;;9.80;;
6133;SDS011;3098;42.678;23.364;2022-08-19T06:12:00;16.60;;;9.82;;
6133;SDS011;3098;42.678;23.364;2022-08-19T06:14:28;15.45;;;10.60;;
6133;SDS011;3098;42.678;23.364;2022-08-19T06:16:59;20.45;;;9.45;;
6133;SDS011;3098;42.678;23.364;2022-08-19T06:19:27;13.60;;;9.57;;
6133;SDS011;3098;42.678;23.364;2022-08-19T06:21:56;12.80;;;9.23;;
6133;SDS011;3098;42.678;23.364;2022-08-19T06:24:26;13.18;;;9.13;;
6133;SDS011;3098;42.678;23.364;2022-08-19T06:26:55;14.32;;;9.85;;
6133;SDS011;3098;42.678;23.364;2022-08-19T06:29:24;17.27;;;9.77;;
6133;SDS011;3098;42.678;23.364;2022-08-19T06:31:53;16.77;;;9.30;;
6133;SDS011;3098;42.678;23.364;2022-08-19T06:34:22;16.75;;;9.27;;
6133;SDS011;3098;42.678;23.364;2022-08-19T06:36:50;15.05;;;8.43;;
6133;SDS011;3098;42.678;23.364;2022-08-19T06:39:20;18.45;;;9.77;;
6133;SDS011;3098;42.678;23.364;2022-08-19T06:41:52;13.73;;;8.82;;
6133;SDS011;3098;42.678;23.364;2022-08-19T06:44:21;15.10;;;8.10;;
6133;SDS011;3098;42.678;23.364;2022-08-19T06:46:51;11.48;;;7.55;;
6133;SDS011;3098;42.678;23.364;2022-08-19T06:49:18;8.52;;;7.63;;
6133;SDS011;3098;42.678;23.364;2022-08-19T06:51:46;14.32;;;8.65;;
6133;SDS011;3098;42.678;23.364;2022-08-19T06:54:14;11.68;;;7.55;;
6133;SDS011;3098;42.678;23.364;2022-08-19T06:56:42;9.98;;;8.57;;
6133;SDS011;3098;42.678;23.364;2022-08-19T06:59:13;15.30;;;7.72;;
6133;SDS011;3098;42.678;23.364;2022-08-19T07:01:43;12.73;;;8.35;;
6133;SDS011;3098;42.678;23.364;2022-08-19T07:04:13;14.85;;;7.60;;
6133;SDS011;3098;42.678;23.364;2022-08-19T07:06:42;11.70;;;7.43;;
6133;SDS011;3098;42.678;23.364;2022-08-19T07:09:10;13.38;;;7.43;;
6133;SDS011;3098;42.678;23.364;2022-08-19T07:11:39;13.55;;;8.15;;
6133;SDS011;3098;42.678;23.364;2022-08-19T07:14:12;12.32;;;8.50;;
6133;SDS011;3098;42.678;23.364;2022-08-19T07:16:42;15.30;;;7.85;;
6133;SDS011;3098;42.678;23.364;2022-08-19T07:19:10;14.90;;;8.05;;
6133;SDS011;3098;42.678;23.364;2022-08-19T07:21:36;14.13;;;8.27;;
6133;SDS011;3098;42.678;23.364;2022-08-19T07:24:04;9.88;;;7.20;;
6133;SDS011;3098;42.678;23.364;2022-08-19T07:26:31;10.23;;;7.07;;
6133;SDS011;3098;42.678;23.364;2022-08-19T07:29:04;12.07;;;7.97;;
6133;SDS011;3098;42.678;23.364;2022-08-19T07:31:34;13.60;;;7.05;;
6133;SDS011;3098;42.678;23.364;2022-08-19T07:34:02;11.55;;;7.07;;
6133;SDS011;3098;42.678;23.364;2022-08-19T07:36:32;20.60;;;7.22;;
6133;SDS011;3098;42.678;23.364;2022-08-19T07:39:03;11.75;;;7.40;;
6133;SDS011;3098;42.678;23.364;2022-08-19T07:41:36;13.52;;;7.45;;
6133;SDS011;3098;42.678;23.364;2022-08-19T07:44:03;10.07;;;6.85;;
6133;SDS011;3098;42.678;23.364;2022-08-19T07:46:32;15.13;;;6.88;;
6133;SDS011;3098;42.678;23.364;2022-08-19T07:49:04;9.43;;;7.20;;
6133;SDS011;3098;42.678;23.364;2022-08-19T07:51:32;10.10;;;7.18;;
6133;SDS011;3098;42.678;23.364;2022-08-19T07:54:01;15.75;;;7.47;;
6133;SDS011;3098;42.678;23.364;2022-08-19T07:56:28;16.15;;;7.22;;
6133;SDS011;3098;42.678;23.364;2022-08-19T07:58:55;11.85;;;7.43;;
6133;SDS011;3098;42.678;23.364;2022-08-19T08:01:23;13.50;;;7.60;;
6133;SDS011;3098;42.678;23.364;2022-08-19T08:03:54;10.75;;;6.95;;
6133;SDS011;3098;42.678;23.364;2022-08-19T08:06:40;12.70;;;7.07;;
6133;SDS011;3098;42.678;23.364;2022-08-19T08:09:26;17.33;;;7.30;;
6133;SDS011;3098;42.678;23.364;2022-08-19T08:11:57;16.35;;;7.57;;
6133;SDS011;3098;42.678;23.364;2022-08-19T08:14:27;11.75;;;7.15;;
6133;SDS011;3098;42.678;23.364;2022-08-19T08:16:56;11.75;;;7.43;;
6133;SDS011;3098;42.678;23.364;2022-08-19T08:19:26;15.00;;;7.40;;
6133;SDS011;3098;42.678;23.364;2022-08-19T08:21:55;10.77;;;6.72;;
6133;SDS011;3098;42.678;23.364;2022-08-19T08:24:23;11.20;;;7.22;;
6133;SDS011;3098;42.678;23.364;2022-08-19T08:26:51;15.80;;;7.40;;
6133;SDS011;3098;42.678;23.364;2022-08-19T08:29:19;12.98;;;7.43;;
6133;SDS011;3098;42.678;23.364;2022-08-19T08:31:46;13.05;;;7.50;;
6133;SDS011;3098;42.678;23.364;2022-08-19T08:34:14;12.25;;;8.13;;
6133;SDS011;3098;42.678;23.364;2022-08-19T08:36:44;17.15;;;8.23;;
6133;SDS011;3098;42.678;23.364;2022-08-19T08:39:12;12.07;;;7.50;;
6133;SDS011;3098;42.678;23.364;2022-08-19T08:41:44;10.90;;;7.28;;
6133;SDS011;3098;42.678;23.364;2022-08-19T08:44:19;9.35;;;6.28;;
6133;SDS011;3098;42.678;23.364;2022-08-19T08:46:48;13.00;;;7.28;;
6133;SDS011;3098;42.678;23.364;2022-08-19T08:49:25;8.93;;;5.88;;
6133;SDS011;3098;42.678;23.364;2022-08-19T08:52:02;9.07;;;6.35;;
6133;SDS011;3098;42.678;23.364;2022-08-19T08:54:33;11.38;;;6.47;;
6133;SDS011;3098;42.678;23.364;2022-08-19T08:57:03;12.02;;;7.50;;
6133;SDS011;3098;42.678;23.364;2022-08-19T08:59:37;14.57;;;7.43;;
6133;SDS011;3098;42.678;23.364;2022-08-19T09:02:06;9.90;;;5.25;;
6133;SDS011;3098;42.678;23.364;2022-08-19T09:04:33;7.70;;;5.72;;
6133;SDS011;3098;42.678;23.364;2022-08-19T09:07:16;10.65;;;5.95;;
6133;SDS011;3098;42.678;23.364;2022-08-19T09:09:52;8.45;;;5.55;;
6133;SDS011;3098;42.678;23.364;2022-08-19T09:12:31;9.48;;;6.65;;
6133;SDS011;3098;42.678;23.364;2022-08-19T09:15:06;9.93;;;5.88;;
6133;SDS011;3098;42.678;23.364;2022-08-19T09:17:35;16.90;;;6.88;;
6133;SDS011;3098;42.678;23.364;2022-08-19T09:20:04;6.32;;;5.15;;
6133;SDS011;3098;42.678;23.364;2022-08-19T09:22:37;12.10;;;5.72;;
6133;SDS011;3098;42.678;23.364;2022-08-19T09:25:06;9.48;;;5.95;;
6133;SDS011;3098;42.678;23.364;2022-08-19T09:27:35;5.75;;;4.75;;
6133;SDS011;3098;42.678;23.364;2022-08-19T09:30:04;7.75;;;4.93;;
6133;SDS011;3098;42.678;23.364;2022-08-19T09:32:32;7.38;;;4.05;;
6133;SDS011;3098;42.678;23.364;2022-08-19T09:34:59;5.95;;;4.22;;
6133;SDS011;3098;42.678;23.364;2022-08-19T09:37:27;5.40;;;4.38;;
6133;SDS011;3098;42.678;23.364;2022-08-19T09:39:55;4.30;;;3.72;;
6133;SDS011;3098;42.678;23.364;2022-08-19T09:42:22;4.32;;;3.92;;
6133;SDS011;3098;42.678;23.364;2022-08-19T09:44:49;7.05;;;4.07;;
6133;SDS011;3098;42.678;23.364;2022-08-19T09:47:17;5.75;;;4.22;;
6133;SDS011;3098;42.678;23.364;2022-08-19T09:49:44;6.95;;;4.50;;
6133;SDS011;3098;42.678;23.364;2022-08-19T09:52:14;5.32;;;4.43;;
6133;SDS011;3098;42.678;23.364;2022-08-19T09:54:41;7.97;;;4.63;;
6133;SDS011;3098;42.678;23.364;2022-08-19T09:57:10;8.20;;;4.80;;
6133;SDS011;3098;42.678;23.364;2022-08-19T09:59:37;9.18;;;5.18;;
6133;SDS011;3098;42.678;23.364;2022-08-19T10:02:05;7.15;;;4.22;;
6133;SDS011;3098;42.678;23.364;2022-08-19T10:04:32;5.78;;;4.53;;
6133;SDS011;3098;42.678;23.364;2022-08-19T10:07:13;5.95;;;4.40;;
6133;SDS011;3098;42.678;23.364;2022-08-19T10:09:40;6.05;;;4.40;;
6133;SDS011;3098;42.678;23.364;2022-08-19T10:12:08;4.53;;;4.00;;
6133;SDS011;3098;42.678;23.364;2022-08-19T10:14:37;8.95;;;5.35;;
6133;SDS011;3098;42.678;23.364;2022-08-19T10:17:04;7.88;;;5.22;;
6133;SDS011;3098;42.678;23.364;2022-08-19T10:19:32;7.90;;;4.90;;
6133;SDS011;3098;42.678;23.364;2022-08-19T10:22:02;7.28;;;5.88;;
6133;SDS011;3098;42.678;23.364;2022-08-19T10:24:32;7.03;;;4.85;;
6133;SDS011;3098;42.678;23.364;2022-08-19T10:27:00;6.90;;;4.82;;
6133;SDS011;3098;42.678;23.364;2022-08-19T10:29:30;9.63;;;5.00;;
6133;SDS011;3098;42.678;23.364;2022-08-19T10:31:59;8.77;;;5.00;;
6133;SDS011;3098;42.678;23.364;2022-08-19T10:34:26;8.63;;;4.90;;
6133;SDS011;3098;42.678;23.364;2022-08-19T10:36:56;6.60;;;5.32;;
6133;SDS011;3098;42.678;23.364;2022-08-19T10:39:25;11.38;;;5.93;;
6133;SDS011;3098;42.678;23.364;2022-08-19T10:41:54;5.50;;;4.90;;
6133;SDS011;3098;42.678;23.364;2022-08-19T10:44:22;8.55;;;5.35;;
6133;SDS011;3098;42.678;23.364;2022-08-19T10:46:50;7.18;;;5.22;;
6133;SDS011;3098;42.678;23.364;2022-08-19T10:49:18;7.78;;;5.32;;
6133;SDS011;3098;42.678;23.364;2022-08-19T10:51:45;6.28;;;5.18;;
6133;SDS011;3098;42.678;23.364;2022-08-19T10:54:31;7.38;;;5.10;;
6133;SDS011;3098;42.678;23.364;2022-08-19T10:57:16;9.57;;;4.97;;
6133;SDS011;3098;42.678;23.364;2022-08-19T10:59:44;10.05;;;5.88;;
6133;SDS011;3098;42.678;23.364;2022-08-19T11:02:13;9.98;;;4.97;;
6133;SDS011;3098;42.678;23.364;2022-08-19T11:04:40;9.27;;;5.35;;
6133;SDS011;3098;42.678;23.364;2022-08-19T11:07:07;8.73;;;4.90;;
6133;SDS011;3098;42.678;23.364;2022-08-19T11:09:37;7.03;;;5.38;;
6133;SDS011;3098;42.678;23.364;2022-08-19T11:12:05;5.95;;;4.95;;
6133;SDS011;3098;42.678;23.364;2022-08-19T11:14:34;5.70;;;4.75;;
6133;SDS011;3098;42.678;23.364;2022-08-19T11:17:02;6.60;;;5.45;;
6133;SDS011;3098;42.678;23.364;2022-08-19T11:19:32;6.13;;;5.03;;
6133;SDS011;3098;42.678;23.364;2022-08-19T11:21:59;7.65;;;4.90;;
6133;SDS011;3098;42.678;23.364;2022-08-19T11:24:28;8.02;;;4.90;;
6133;SDS011;3098;42.678;23.364;2022-08-19T11:27:01;6.10;;;5.45;;
6133;SDS011;3098;42.678;23.364;2022-08-19T11:29:30;6.97;;;5.15;;
6133;SDS011;3098;42.678;23.364;2022-08-19T11:31:59;9.18;;;5.38;;
6133;SDS011;3098;42.678;23.364;2022-08-19T11:34:30;5.68;;;5.07;;
6133;SDS011;3098;42.678;23.364;2022-08-19T11:37:00;5.53;;;4.88;;
6133;SDS011;3098;42.678;23.364;2022-08-19T11:39:29;5.97;;;4.95;;
6133;SDS011;3098;42.678;23.364;2022-08-19T11:41:57;12.95;;;5.85;;
6133;SDS011;3098;42.678;23.364;2022-08-19T11:44:25;6.88;;;5.55;;
6133;SDS011;3098;42.678;23.364;2022-08-19T11:46:55;6.78;;;5.03;;
6133;SDS011;3098;42.678;23.364;2022-08-19T11:49:22;7.53;;;5.35;;
6133;SDS011;3098;42.678;23.364;2022-08-19T11:51:51;11.43;;;5.30;;
6133;SDS011;3098;42.678;23.364;2022-08-19T11:54:18;6.85;;;5.38;;
6133;SDS011;3098;42.678;23.364;2022-08-19T11:56:45;7.68;;;6.18;;
6133;SDS011;3098;42.678;23.364;2022-08-19T11:59:14;12.30;;;5.38;;
6133;SDS011;3098;42.678;23.364;2022-08-19T12:01:41;6.20;;;5.50;;
6133;SDS011;3098;42.678;23.364;2022-08-19T12:04:08;9.82;;;5.70;;
6133;SDS011;3098;42.678;23.364;2022-08-19T12:06:37;7.45;;;5.97;;
6133;SDS011;3098;42.678;23.364;2022-08-19T12:09:08;11.73;;;6.05;;
6133;SDS011;3098;42.678;23.364;2022-08-19T12:11:36;8.95;;;5.57;;
6133;SDS011;3098;42.678;23.364;2022-08-19T12:14:04;12.57;;;5.63;;
6133;SDS011;3098;42.678;23.364;2022-08-19T12:16:32;13.10;;;5.85;;
6133;SDS011;3098;42.678;23.364;2022-08-19T12:18:59;6.63;;;5.47;;
6133;SDS011;3098;42.678;23.364;2022-08-19T12:21:30;7.75;;;5.97;;
6133;SDS011;3098;42.678;23.364;2022-08-19T12:23:59;6.55;;;5.50;;
6133;SDS011;3098;42.678;23.364;2022-08-19T12:26:29;9.68;;;6.10;;
6133;SDS011;3098;42.678;23.364;2022-08-19T12:28:57;7.05;;;5.70;;
6133;SDS011;3098;42.678;23.364;2022-08-19T12:31:25;14.48;;;6.93;;
6133;SDS011;3098;42.678;23.364;2022-08-19T12:33:53;16.52;;;9.18;;
6133;SDS011;3098;42.678;23.364;2022-08-19T12:36:20;12.50;;;5.72;;
6133;SDS011;3098;42.678;23.364;2022-08-19T12:38:48;9.00;;;5.50;;
6133;SDS011;3098;42.678;23.364;2022-08-19T12:41:15;6.20;;;5.13;;
6133;SDS011;3098;42.678;23.364;2022-08-19T12:43:47;12.00;;;5.57;;
6133;SDS011;3098;42.678;23.364;2022-08-19T12:46:15;9.15;;;6.20;;
6133;SDS011;3098;42.678;23.364;2022-08-19T12:48:43;7.70;;;6.03;;
6133;SDS011;3098;42.678;23.364;2022-08-19T12:51:11;8.82;;;6.00;;
6133;SDS011;3098;42.678;23.364;2022-08-19T12:53:40;10.18;;;6.20;;
6133;SDS011;3098;42.678;23.364;2022-08-19T12:56:11;10.68;;;6.38;;
6133;SDS011;3098;42.678;23.364;2022-08-19T12:58:50;8.40;;;5.90;;
6133;SDS011;3098;42.678;23.364;2022-08-19T13:01:17;8.27;;;6.15;;
6133;SDS011;3098;42.678;23.364;2022-08-19T13:03:45;6.85;;;5.72;;
6133;SDS011;3098;42.678;23.364;2022-08-19T13:06:13;9.38;;;5.78;;
6133;SDS011;3098;42.678;23.364;2022-08-19T13:08:40;8.48;;;6.10;;
6133;SDS011;3098;42.678;23.364;2022-08-19T13:11:09;7.72;;;6.03;;
6133;SDS011;3098;42.678;23.364;2022-08-19T13:13:38;8.48;;;5.78;;
6133;SDS011;3098;42.678;23.364;2022-08-19T13:16:08;9.02;;;5.93;;
6133;SDS011;3098;42.678;23.364;2022-08-19T13:18:36;10.18;;;6.68;;
6133;SDS011;3098;42.678;23.364;2022-08-19T13:21:05;15.35;;;6.78;;
6133;SDS011;3098;42.678;23.364;2022-08-19T13:23:34;10.70;;;5.63;;
6133;SDS011;3098;42.678;23.364;2022-08-19T13:26:02;11.13;;;6.22;;
6133;SDS011;3098;42.678;23.364;2022-08-19T13:28:31;12.95;;;5.68;;
6133;SDS011;3098;42.678;23.364;2022-08-19T13:31:16;7.38;;;5.75;;
6133;SDS011;3098;42.678;23.364;2022-08-19T13:34:01;9.65;;;5.68;;
6133;SDS011;3098;42.678;23.364;2022-08-19T13:36:29;8.30;;;6.15;;
6133;SDS011;3098;42.678;23.364;2022-08-19T13:38:56;10.57;;;6.00;;
6133;SDS011;3098;42.678;23.364;2022-08-19T13:41:24;7.45;;;5.95;;
6133;SDS011;3098;42.678;23.364;2022-08-19T13:43:50;8.80;;;5.60;;
6133;SDS011;3098;42.678;23.364;2022-08-19T13:46:19;7.55;;;5.90;;
6133;SDS011;3098;42.678;23.364;2022-08-19T13:48:47;8.57;;;5.55;;
6133;SDS011;3098;42.678;23.364;2022-08-19T13:51:15;8.10;;;5.90;;
6133;SDS011;3098;42.678;23.364;2022-08-19T13:53:43;8.77;;;5.60;;
6133;SDS011;3098;42.678;23.364;2022-08-19T13:56:12;6.93;;;5.97;;
6133;SDS011;3098;42.678;23.364;2022-08-19T13:58:41;9.55;;;6.10;;
6133;SDS011;3098;42.678;23.364;2022-08-19T14:01:09;7.20;;;5.70;;
6133;SDS011;3098;42.678;23.364;2022-08-19T14:03:38;9.30;;;6.03;;
6133;SDS011;3098;42.678;23.364;2022-08-19T14:06:05;8.80;;;5.80;;
6133;SDS011;3098;42.678;23.364;2022-08-19T14:08:33;11.55;;;6.18;;
6133;SDS011;3098;42.678;23.364;2022-08-19T14:11:04;11.50;;;6.20;;
6133;SDS011;3098;42.678;23.364;2022-08-19T14:13:31;9.75;;;6.10;;
6133;SDS011;3098;42.678;23.364;2022-08-19T14:15:59;8.00;;;6.05;;
6133;SDS011;3098;42.678;23.364;2022-08-19T14:18:27;7.35;;;5.95;;
6133;SDS011;3098;42.678;23.364;2022-08-19T14:20:56;7.30;;;6.05;;
6133;SDS011;3098;42.678;23.364;2022-08-19T14:23:23;10.30;;;6.07;;
6133;SDS011;3098;42.678;23.364;2022-08-19T14:25:50;7.68;;;5.85;;
6133;SDS011;3098;42.678;23.364;2022-08-19T14:28:17;7.80;;;5.75;;
6133;SDS011;3098;42.678;23.364;2022-08-19T14:30:46;10.35;;;6.40;;
6133;SDS011;3098;42.678;23.364;2022-08-19T14:33:12;7.65;;;6.28;;
6133;SDS011;3098;42.678;23.364;2022-08-19T14:35:40;8.05;;;6.10;;
6133;SDS011;3098;42.678;23.364;2022-08-19T14:38:14;10.75;;;5.50;;
6133;SDS011;3098;42.678;23.364;2022-08-19T14:40:42;9.38;;;5.55;;
6133;SDS011;3098;42.678;23.364;2022-08-19T14:43:10;11.15;;;5.90;;
6133;SDS011;3098;42.678;23.364;2022-08-19T14:45:39;12.55;;;6.53;;
6133;SDS011;3098;42.678;23.364;2022-08-19T14:48:07;9.27;;;6.18;;
6133;SDS011;3098;42.678;23.364;2022-08-19T14:50:35;9.25;;;5.97;;
6133;SDS011;3098;42.678;23.364;2022-08-19T14:53:03;17.30;;;5.72;;
6133;SDS011;3098;42.678;23.364;2022-08-19T14:55:34;6.95;;;5.82;;
6133;SDS011;3098;42.678;23.364;2022-08-19T14:58:01;11.20;;;6.22;;
6133;SDS011;3098;42.678;23.364;2022-08-19T15:00:29;8.82;;;5.97;;
6133;SDS011;3098;42.678;23.364;2022-08-19T15:02:56;8.95;;;6.47;;